Terminal Aerodrome Forecast
Issued by NWS Bismarck, ND

Home | Current Version | Previous Version | Text Only | Print | Product List | Glossary Off
Versions: 1 2 3 4 5 6 7 8 9 10 11 12 13 14 15 16 17 18 19

000
FTUS43 KBIS 201100
TAFBIS
TAF
KBIS 201126Z 2012/2112 12008KT P6SM BKN200
     FM202000 14012KT P6SM -SHRA BKN060
      TEMPO 2021/2101 3SM TSRA BKN030CB OVC060
     FM210500 33006KT P6SM -SHRA BKN060
     FM210800 31006KT P6SM SCT060=

USA.gov is the U.S. government's official web portal to all federal, state and local government web resources and services.